sensor_id;sensor_type;location;lat;lon;timestamp;temperature;humidity
28071;DHT22;15383;48.408;9.968;2024-01-11T00:02:17;6.40;99.90
28071;DHT22;15383;48.408;9.968;2024-01-11T00:04:43;6.50;99.90
28071;DHT22;15383;48.408;9.968;2024-01-11T00:07:09;6.40;99.90
28071;DHT22;15383;48.408;9.968;2024-01-11T00:09:39;6.40;99.90
28071;DHT22;15383;48.408;9.968;2024-01-11T00:12:05;6.40;99.90
28071;DHT22;15383;48.408;9.968;2024-01-11T00:14:31;6.40;99.90
28071;DHT22;15383;48.408;9.968;2024-01-11T00:16:57;6.40;99.90
28071;DHT22;15383;48.408;9.968;2024-01-11T00:19:22;6.40;99.90
28071;DHT22;15383;48.408;9.968;2024-01-11T00:21:48;6.40;99.90
28071;DHT22;15383;48.408;9.968;2024-01-11T00:24:13;6.40;99.90
28071;DHT22;15383;48.408;9.968;2024-01-11T00:26:39;6.40;99.90
28071;DHT22;15383;48.408;9.968;2024-01-11T00:29:04;6.40;99.90
28071;DHT22;15383;48.408;9.968;2024-01-11T00:31:30;6.40;99.90
28071;DHT22;15383;48.408;9.968;2024-01-11T00:33:55;6.40;99.90
28071;DHT22;15383;48.408;9.968;2024-01-11T00:36:21;6.40;99.90
28071;DHT22;15383;48.408;9.968;2024-01-11T00:38:46;6.40;99.90
28071;DHT22;15383;48.408;9.968;2024-01-11T00:41:12;6.40;99.90
28071;DHT22;15383;48.408;9.968;2024-01-11T00:43:38;6.40;99.90
28071;DHT22;15383;48.408;9.968;2024-01-11T00:46:03;6.40;99.90
28071;DHT22;15383;48.408;9.968;2024-01-11T00:48:29;6.40;99.90
28071;DHT22;15383;48.408;9.968;2024-01-11T00:50:54;6.40;99.90
28071;DHT22;15383;48.408;9.968;2024-01-11T00:53:20;6.40;99.90
28071;DHT22;15383;48.408;9.968;2024-01-11T00:55:46;6.40;99.90
28071;DHT22;15383;48.408;9.968;2024-01-11T00:58:11;6.40;99.90
28071;DHT22;15383;48.408;9.968;2024-01-11T01:00:37;6.40;99.90
28071;DHT22;15383;48.408;9.968;2024-01-11T01:03:03;6.40;99.90
28071;DHT22;15383;48.408;9.968;2024-01-11T01:05:28;6.30;99.90
28071;DHT22;15383;48.408;9.968;2024-01-11T01:07:54;6.30;99.90
28071;DHT22;15383;48.408;9.968;2024-01-11T01:10:19;6.40;99.90
28071;DHT22;15383;48.408;9.968;2024-01-11T01:12:45;6.30;99.90
28071;DHT22;15383;48.408;9.968;2024-01-11T01:15:10;6.30;99.90
28071;DHT22;15383;48.408;9.968;2024-01-11T01:17:37;6.30;99.90
28071;DHT22;15383;48.408;9.968;2024-01-11T01:20:02;6.40;99.90
28071;DHT22;15383;48.408;9.968;2024-01-11T01:22:28;6.30;99.90
28071;DHT22;15383;48.408;9.968;2024-01-11T01:24:54;6.40;99.90
28071;DHT22;15383;48.408;9.968;2024-01-11T01:27:20;6.40;99.90
28071;DHT22;15383;48.408;9.968;2024-01-11T01:29:46;6.30;99.90
28071;DHT22;15383;48.408;9.968;2024-01-11T01:32:11;6.30;99.90
28071;DHT22;15383;48.408;9.968;2024-01-11T01:34:37;6.30;99.90
28071;DHT22;15383;48.408;9.968;2024-01-11T01:37:02;6.30;99.90
28071;DHT22;15383;48.408;9.968;2024-01-11T01:39:28;6.30;99.90
28071;DHT22;15383;48.408;9.968;2024-01-11T01:41:53;6.30;99.90
28071;DHT22;15383;48.408;9.968;2024-01-11T01:44:19;6.30;99.90
28071;DHT22;15383;48.408;9.968;2024-01-11T01:46:45;6.30;99.90
28071;DHT22;15383;48.408;9.968;2024-01-11T01:49:10;6.30;99.90
28071;DHT22;15383;48.408;9.968;2024-01-11T01:51:37;6.30;99.90
28071;DHT22;15383;48.408;9.968;2024-01-11T01:54:03;6.30;99.90
28071;DHT22;15383;48.408;9.968;2024-01-11T01:56:29;6.30;99.90
28071;DHT22;15383;48.408;9.968;2024-01-11T01:58:55;6.30;99.90
28071;DHT22;15383;48.408;9.968;2024-01-11T02:01:22;6.30;99.90
28071;DHT22;15383;48.408;9.968;2024-01-11T02:03:50;6.30;99.90
28071;DHT22;15383;48.408;9.968;2024-01-11T02:06:18;6.30;99.90
28071;DHT22;15383;48.408;9.968;2024-01-11T02:08:46;6.20;99.90
28071;DHT22;15383;48.408;9.968;2024-01-11T02:11:11;6.30;99.90
28071;DHT22;15383;48.408;9.968;2024-01-11T02:13:37;6.20;99.90
28071;DHT22;15383;48.408;9.968;2024-01-11T02:16:03;6.30;99.90
28071;DHT22;15383;48.408;9.968;2024-01-11T02:18:29;6.30;99.90
28071;DHT22;15383;48.408;9.968;2024-01-11T02:20:55;6.30;99.90
28071;DHT22;15383;48.408;9.968;2024-01-11T02:23:24;6.20;99.90
28071;DHT22;15383;48.408;9.968;2024-01-11T02:25:50;6.20;99.90
28071;DHT22;15383;48.408;9.968;2024-01-11T02:28:15;6.30;99.90
28071;DHT22;15383;48.408;9.968;2024-01-11T02:30:41;6.30;99.90
28071;DHT22;15383;48.408;9.968;2024-01-11T02:33:08;6.20;99.90
28071;DHT22;15383;48.408;9.968;2024-01-11T02:35:34;6.20;99.90
28071;DHT22;15383;48.408;9.968;2024-01-11T02:38:00;6.30;99.90
28071;DHT22;15383;48.408;9.968;2024-01-11T02:40:26;6.30;99.90
28071;DHT22;15383;48.408;9.968;2024-01-11T02:42:52;6.30;99.90
28071;DHT22;15383;48.408;9.968;2024-01-11T02:45:18;6.30;99.90
28071;DHT22;15383;48.408;9.968;2024-01-11T02:47:44;6.20;99.90
28071;DHT22;15383;48.408;9.968;2024-01-11T02:50:10;6.20;99.90
28071;DHT22;15383;48.408;9.968;2024-01-11T02:52:37;6.20;99.90
28071;DHT22;15383;48.408;9.968;2024-01-11T02:55:03;6.20;99.90
28071;DHT22;15383;48.408;9.968;2024-01-11T02:57:29;6.20;99.90
28071;DHT22;15383;48.408;9.968;2024-01-11T02:59:54;6.20;99.90
28071;DHT22;15383;48.408;9.968;2024-01-11T03:02:20;6.20;99.90
28071;DHT22;15383;48.408;9.968;2024-01-11T03:04:45;6.20;99.90
28071;DHT22;15383;48.408;9.968;2024-01-11T03:07:11;6.30;99.90
28071;DHT22;15383;48.408;9.968;2024-01-11T03:09:37;6.30;99.90
28071;DHT22;15383;48.408;9.968;2024-01-11T03:12:02;6.30;99.90
28071;DHT22;15383;48.408;9.968;2024-01-11T03:14:28;6.30;99.90
28071;DHT22;15383;48.408;9.968;2024-01-11T03:16:53;6.30;99.90
28071;DHT22;15383;48.408;9.968;2024-01-11T03:19:19;6.30;99.90
28071;DHT22;15383;48.408;9.968;2024-01-11T03:21:45;6.20;99.90
28071;DHT22;15383;48.408;9.968;2024-01-11T03:24:12;6.20;99.90
28071;DHT22;15383;48.408;9.968;2024-01-11T03:26:37;6.20;99.90
28071;DHT22;15383;48.408;9.968;2024-01-11T03:29:03;6.30;99.90
28071;DHT22;15383;48.408;9.968;2024-01-11T03:31:28;6.30;99.90
28071;DHT22;15383;48.408;9.968;2024-01-11T03:33:54;6.20;99.90
28071;DHT22;15383;48.408;9.968;2024-01-11T03:36:23;6.20;99.90
28071;DHT22;15383;48.408;9.968;2024-01-11T03:38:50;6.20;99.90
28071;DHT22;15383;48.408;9.968;2024-01-11T03:41:16;6.20;99.90
28071;DHT22;15383;48.408;9.968;2024-01-11T03:43:41;6.20;99.90
28071;DHT22;15383;48.408;9.968;2024-01-11T03:46:07;6.20;99.90
28071;DHT22;15383;48.408;9.968;2024-01-11T03:48:32;6.20;99.90
28071;DHT22;15383;48.408;9.968;2024-01-11T03:50:58;6.20;99.90
28071;DHT22;15383;48.408;9.968;2024-01-11T03:53:24;6.20;99.90
28071;DHT22;15383;48.408;9.968;2024-01-11T03:55:49;6.20;99.90
28071;DHT22;15383;48.408;9.968;2024-01-11T03:58:15;6.20;99.90
28071;DHT22;15383;48.408;9.968;2024-01-11T04:00:40;6.20;99.90
28071;DHT22;15383;48.408;9.968;2024-01-11T04:03:06;6.20;99.90
28071;DHT22;15383;48.408;9.968;2024-01-11T04:05:32;6.20;99.90
28071;DHT22;15383;48.408;9.968;2024-01-11T04:07:58;6.20;99.90
28071;DHT22;15383;48.408;9.968;2024-01-11T04:10:23;6.20;99.90
28071;DHT22;15383;48.408;9.968;2024-01-11T04:12:49;6.20;99.90
28071;DHT22;15383;48.408;9.968;2024-01-11T04:15:14;6.20;99.90
28071;DHT22;15383;48.408;9.968;2024-01-11T04:17:40;6.20;99.90
28071;DHT22;15383;48.408;9.968;2024-01-11T04:20:07;6.20;99.90
28071;DHT22;15383;48.408;9.968;2024-01-11T04:22:34;6.20;99.90
28071;DHT22;15383;48.408;9.968;2024-01-11T04:25:00;6.20;99.90
28071;DHT22;15383;48.408;9.968;2024-01-11T04:27:25;6.20;99.90
28071;DHT22;15383;48.408;9.968;2024-01-11T04:29:51;6.20;99.90
28071;DHT22;15383;48.408;9.968;2024-01-11T04:32:17;6.20;99.90
28071;DHT22;15383;48.408;9.968;2024-01-11T04:34:42;6.20;99.90
28071;DHT22;15383;48.408;9.968;2024-01-11T04:37:08;6.20;99.90
28071;DHT22;15383;48.408;9.968;2024-01-11T04:39:33;6.20;99.90
28071;DHT22;15383;48.408;9.968;2024-01-11T04:41:59;6.20;99.90
28071;DHT22;15383;48.408;9.968;2024-01-11T04:44:26;6.20;99.90
28071;DHT22;15383;48.408;9.968;2024-01-11T04:46:51;6.20;99.90
28071;DHT22;15383;48.408;9.968;2024-01-11T04:49:17;6.20;99.90
28071;DHT22;15383;48.408;9.968;2024-01-11T04:51:42;6.20;99.90
28071;DHT22;15383;48.408;9.968;2024-01-11T04:54:08;6.20;99.90
28071;DHT22;15383;48.408;9.968;2024-01-11T04:56:34;6.20;99.90
28071;DHT22;15383;48.408;9.968;2024-01-11T04:58:59;6.20;99.90
28071;DHT22;15383;48.408;9.968;2024-01-11T05:01:25;6.20;99.90
28071;DHT22;15383;48.408;9.968;2024-01-11T05:03:50;6.20;99.90
28071;DHT22;15383;48.408;9.968;2024-01-11T05:06:20;6.20;99.90
28071;DHT22;15383;48.408;9.968;2024-01-11T05:08:47;6.20;99.90
28071;DHT22;15383;48.408;9.968;2024-01-11T05:11:17;6.20;99.90
28071;DHT22;15383;48.408;9.968;2024-01-11T05:13:42;6.20;99.90
28071;DHT22;15383;48.408;9.968;2024-01-11T05:16:19;6.20;99.90
28071;DHT22;15383;48.408;9.968;2024-01-11T05:18:45;6.20;99.90
28071;DHT22;15383;48.408;9.968;2024-01-11T05:21:10;6.20;99.90
28071;DHT22;15383;48.408;9.968;2024-01-11T05:23:36;6.20;99.90
28071;DHT22;15383;48.408;9.968;2024-01-11T05:26:01;6.20;99.90
28071;DHT22;15383;48.408;9.968;2024-01-11T05:28:27;6.20;99.90
28071;DHT22;15383;48.408;9.968;2024-01-11T05:30:53;6.20;99.90
28071;DHT22;15383;48.408;9.968;2024-01-11T05:33:18;6.20;99.90
28071;DHT22;15383;48.408;9.968;2024-01-11T05:35:44;6.20;99.90
28071;DHT22;15383;48.408;9.968;2024-01-11T05:38:09;6.20;99.90
28071;DHT22;15383;48.408;9.968;2024-01-11T05:40:35;6.20;99.90
28071;DHT22;15383;48.408;9.968;2024-01-11T05:43:01;6.20;99.90
28071;DHT22;15383;48.408;9.968;2024-01-11T05:45:26;6.20;99.90
28071;DHT22;15383;48.408;9.968;2024-01-11T05:47:52;6.20;99.90
28071;DHT22;15383;48.408;9.968;2024-01-11T05:50:17;6.20;99.90
28071;DHT22;15383;48.408;9.968;2024-01-11T05:52:43;6.20;99.90
28071;DHT22;15383;48.408;9.968;2024-01-11T05:55:08;6.20;99.90
28071;DHT22;15383;48.408;9.968;2024-01-11T05:57:34;6.20;99.90
28071;DHT22;15383;48.408;9.968;2024-01-11T05:59:59;6.20;99.90
28071;DHT22;15383;48.408;9.968;2024-01-11T06:02:25;6.20;99.90
28071;DHT22;15383;48.408;9.968;2024-01-11T06:04:51;6.20;99.90
28071;DHT22;15383;48.408;9.968;2024-01-11T06:07:16;6.20;99.90
28071;DHT22;15383;48.408;9.968;2024-01-11T06:09:42;6.10;99.90
28071;DHT22;15383;48.408;9.968;2024-01-11T06:12:08;6.10;99.90
28071;DHT22;15383;48.408;9.968;2024-01-11T06:14:34;6.20;99.90
28071;DHT22;15383;48.408;9.968;2024-01-11T06:17:00;6.10;99.90
28071;DHT22;15383;48.408;9.968;2024-01-11T06:19:25;6.20;99.90
28071;DHT22;15383;48.408;9.968;2024-01-11T06:21:51;6.20;99.90
28071;DHT22;15383;48.408;9.968;2024-01-11T06:24:16;6.20;99.90
28071;DHT22;15383;48.408;9.968;2024-01-11T06:26:42;6.20;99.90
28071;DHT22;15383;48.408;9.968;2024-01-11T06:29:07;6.10;99.90
28071;DHT22;15383;48.408;9.968;2024-01-11T06:31:33;6.10;99.90
28071;DHT22;15383;48.408;9.968;2024-01-11T06:33:59;6.10;99.90
28071;DHT22;15383;48.408;9.968;2024-01-11T06:36:24;6.10;99.90
28071;DHT22;15383;48.408;9.968;2024-01-11T06:38:50;6.10;99.90
28071;DHT22;15383;48.408;9.968;2024-01-11T06:41:15;6.10;99.90
28071;DHT22;15383;48.408;9.968;2024-01-11T06:43:41;6.10;99.90
28071;DHT22;15383;48.408;9.968;2024-01-11T06:46:06;6.10;99.90
28071;DHT22;15383;48.408;9.968;2024-01-11T06:48:32;6.10;99.90
28071;DHT22;15383;48.408;9.968;2024-01-11T06:50:58;6.10;99.90
28071;DHT22;15383;48.408;9.968;2024-01-11T06:53:23;6.10;99.90
28071;DHT22;15383;48.408;9.968;2024-01-11T06:55:49;6.10;99.90
28071;DHT22;15383;48.408;9.968;2024-01-11T06:58:17;6.10;99.90
28071;DHT22;15383;48.408;9.968;2024-01-11T07:00:42;6.10;99.90
28071;DHT22;15383;48.408;9.968;2024-01-11T07:03:11;6.10;99.90
28071;DHT22;15383;48.408;9.968;2024-01-11T07:05:37;6.10;99.90
28071;DHT22;15383;48.408;9.968;2024-01-11T07:08:03;6.10;99.90
28071;DHT22;15383;48.408;9.968;2024-01-11T07:10:29;6.10;99.90
28071;DHT22;15383;48.408;9.968;2024-01-11T07:12:55;6.10;99.90
28071;DHT22;15383;48.408;9.968;2024-01-11T07:15:20;6.10;99.90
28071;DHT22;15383;48.408;9.968;2024-01-11T07:17:46;6.10;99.90
28071;DHT22;15383;48.408;9.968;2024-01-11T07:20:11;6.10;99.90
28071;DHT22;15383;48.408;9.968;2024-01-11T07:22:38;6.10;99.90
28071;DHT22;15383;48.408;9.968;2024-01-11T07:25:04;6.10;99.90
28071;DHT22;15383;48.408;9.968;2024-01-11T07:27:29;6.10;99.90
28071;DHT22;15383;48.408;9.968;2024-01-11T07:29:55;6.10;99.90
28071;DHT22;15383;48.408;9.968;2024-01-11T07:32:20;6.10;99.90
28071;DHT22;15383;48.408;9.968;2024-01-11T07:34:46;6.10;99.90
28071;DHT22;15383;48.408;9.968;2024-01-11T07:37:11;6.10;99.90
28071;DHT22;15383;48.408;9.968;2024-01-11T07:39:37;6.10;99.90
28071;DHT22;15383;48.408;9.968;2024-01-11T07:42:03;6.10;99.90
28071;DHT22;15383;48.408;9.968;2024-01-11T07:44:28;6.10;99.90
28071;DHT22;15383;48.408;9.968;2024-01-11T07:46:54;6.10;99.90
28071;DHT22;15383;48.408;9.968;2024-01-11T07:49:19;6.10;99.90
28071;DHT22;15383;48.408;9.968;2024-01-11T07:51:45;6.10;99.90
28071;DHT22;15383;48.408;9.968;2024-01-11T07:54:11;6.10;99.90
28071;DHT22;15383;48.408;9.968;2024-01-11T07:56:37;6.10;99.90
28071;DHT22;15383;48.408;9.968;2024-01-11T07:59:03;6.10;99.90
28071;DHT22;15383;48.408;9.968;2024-01-11T08:01:28;6.10;99.90
28071;DHT22;15383;48.408;9.968;2024-01-11T08:03:54;6.10;99.90
28071;DHT22;15383;48.408;9.968;2024-01-11T08:06:19;6.10;99.90
28071;DHT22;15383;48.408;9.968;2024-01-11T08:08:45;6.10;99.90
28071;DHT22;15383;48.408;9.968;2024-01-11T08:11:16;6.10;99.90
28071;DHT22;15383;48.408;9.968;2024-01-11T08:13:42;6.10;99.90
28071;DHT22;15383;48.408;9.968;2024-01-11T08:16:07;6.10;99.90
28071;DHT22;15383;48.408;9.968;2024-01-11T08:18:35;6.10;99.90
28071;DHT22;15383;48.408;9.968;2024-01-11T08:21:00;6.10;99.90
28071;DHT22;15383;48.408;9.968;2024-01-11T08:23:26;6.10;99.90
28071;DHT22;15383;48.408;9.968;2024-01-11T08:25:52;6.10;99.90
28071;DHT22;15383;48.408;9.968;2024-01-11T08:28:18;6.10;99.90
28071;DHT22;15383;48.408;9.968;2024-01-11T08:30:44;6.10;99.90
28071;DHT22;15383;48.408;9.968;2024-01-11T08:33:09;6.10;99.90
28071;DHT22;15383;48.408;9.968;2024-01-11T08:35:35;6.10;99.90
28071;DHT22;15383;48.408;9.968;2024-01-11T08:38:01;6.10;99.90
28071;DHT22;15383;48.408;9.968;2024-01-11T08:40:26;6.10;99.90
28071;DHT22;15383;48.408;9.968;2024-01-11T08:42:52;6.10;99.90
28071;DHT22;15383;48.408;9.968;2024-01-11T08:45:18;6.10;99.90
28071;DHT22;15383;48.408;9.968;2024-01-11T08:47:46;6.10;99.90
28071;DHT22;15383;48.408;9.968;2024-01-11T08:50:15;6.10;99.90
28071;DHT22;15383;48.408;9.968;2024-01-11T08:52:41;6.10;99.90
28071;DHT22;15383;48.408;9.968;2024-01-11T08:55:07;6.10;99.90
28071;DHT22;15383;48.408;9.968;2024-01-11T08:57:33;6.10;99.90
28071;DHT22;15383;48.408;9.968;2024-01-11T09:00:01;6.10;99.90
28071;DHT22;15383;48.408;9.968;2024-01-11T09:02:27;6.10;99.90
28071;DHT22;15383;48.408;9.968;2024-01-11T09:04:52;6.10;99.90
28071;DHT22;15383;48.408;9.968;2024-01-11T09:07:18;6.10;99.90
28071;DHT22;15383;48.408;9.968;2024-01-11T09:09:44;6.10;99.90
28071;DHT22;15383;48.408;9.968;2024-01-11T09:12:09;6.10;99.90
28071;DHT22;15383;48.408;9.968;2024-01-11T09:14:35;6.10;99.90
28071;DHT22;15383;48.408;9.968;2024-01-11T09:17:00;6.10;99.90
28071;DHT22;15383;48.408;9.968;2024-01-11T09:19:26;6.10;99.90
28071;DHT22;15383;48.408;9.968;2024-01-11T09:21:52;6.10;99.90
28071;DHT22;15383;48.408;9.968;2024-01-11T09:24:17;6.10;99.90
28071;DHT22;15383;48.408;9.968;2024-01-11T09:26:43;6.10;99.90
28071;DHT22;15383;48.408;9.968;2024-01-11T09:29:08;6.10;99.90
28071;DHT22;15383;48.408;9.968;2024-01-11T09:31:34;6.10;99.90
28071;DHT22;15383;48.408;9.968;2024-01-11T09:33:59;6.20;99.90
28071;DHT22;15383;48.408;9.968;2024-01-11T09:36:25;6.20;99.90
28071;DHT22;15383;48.408;9.968;2024-01-11T09:38:50;6.20;99.90
28071;DHT22;15383;48.408;9.968;2024-01-11T09:41:16;6.20;99.90
28071;DHT22;15383;48.408;9.968;2024-01-11T09:43:42;6.30;99.90
28071;DHT22;15383;48.408;9.968;2024-01-11T09:46:10;6.20;99.90
28071;DHT22;15383;48.408;9.968;2024-01-11T09:48:38;6.20;99.90
28071;DHT22;15383;48.408;9.968;2024-01-11T09:51:07;6.20;99.90
28071;DHT22;15383;48.408;9.968;2024-01-11T09:53:33;6.20;99.90
28071;DHT22;15383;48.408;9.968;2024-01-11T09:56:00;6.20;99.90
28071;DHT22;15383;48.408;9.968;2024-01-11T09:58:26;6.20;99.90
28071;DHT22;15383;48.408;9.968;2024-01-11T10:00:56;6.20;99.90
28071;DHT22;15383;48.408;9.968;2024-01-11T10:03:25;6.20;99.90
28071;DHT22;15383;48.408;9.968;2024-01-11T10:05:55;6.30;99.90
28071;DHT22;15383;48.408;9.968;2024-01-11T10:08:22;6.20;99.90
28071;DHT22;15383;48.408;9.968;2024-01-11T10:10:48;6.30;99.90
28071;DHT22;15383;48.408;9.968;2024-01-11T10:13:15;6.20;99.90
28071;DHT22;15383;48.408;9.968;2024-01-11T10:15:45;6.30;99.90
28071;DHT22;15383;48.408;9.968;2024-01-11T10:18:11;6.30;99.90
28071;DHT22;15383;48.408;9.968;2024-01-11T10:20:37;6.30;99.90
28071;DHT22;15383;48.408;9.968;2024-01-11T10:23:03;6.20;99.90
28071;DHT22;15383;48.408;9.968;2024-01-11T10:25:29;6.20;99.90
28071;DHT22;15383;48.408;9.968;2024-01-11T10:27:55;6.20;99.90
28071;DHT22;15383;48.408;9.968;2024-01-11T10:30:21;6.30;99.90
28071;DHT22;15383;48.408;9.968;2024-01-11T10:32:49;6.30;99.90
28071;DHT22;15383;48.408;9.968;2024-01-11T10:35:15;6.30;99.90
28071;DHT22;15383;48.408;9.968;2024-01-11T10:37:43;6.30;99.90
28071;DHT22;15383;48.408;9.968;2024-01-11T10:40:09;6.20;99.90
28071;DHT22;15383;48.408;9.968;2024-01-11T10:42:42;6.20;99.90
28071;DHT22;15383;48.408;9.968;2024-01-11T10:45:20;6.20;99.90
28071;DHT22;15383;48.408;9.968;2024-01-11T10:47:55;6.20;99.90
28071;DHT22;15383;48.408;9.968;2024-01-11T10:50:23;6.30;99.90
28071;DHT22;15383;48.408;9.968;2024-01-11T10:55:55;6.30;99.90
28071;DHT22;15383;48.408;9.968;2024-01-11T10:58:23;6.40;99.90
28071;DHT22;15383;48.408;9.968;2024-01-11T11:00:51;6.30;99.90
28071;DHT22;15383;48.408;9.968;2024-01-11T11:03:19;6.40;99.90
28071;DHT22;15383;48.408;9.968;2024-01-11T11:05:48;6.30;99.90
28071;DHT22;15383;48.408;9.968;2024-01-11T11:08:16;6.30;99.90
28071;DHT22;15383;48.408;9.968;2024-01-11T11:10:43;7.50;99.90
28071;DHT22;15383;48.408;9.968;2024-01-11T11:13:10;7.00;99.90
28071;DHT22;15383;48.408;9.968;2024-01-11T11:15:38;6.60;99.90
28071;DHT22;15383;48.408;9.968;2024-01-11T11:18:04;6.50;99.90
28071;DHT22;15383;48.408;9.968;2024-01-11T11:20:32;6.40;99.90
28071;DHT22;15383;48.408;9.968;2024-01-11T11:23:05;6.40;99.90
28071;DHT22;15383;48.408;9.968;2024-01-11T11:25:31;6.40;99.90
28071;DHT22;15383;48.408;9.968;2024-01-11T11:27:58;6.30;99.90
28071;DHT22;15383;48.408;9.968;2024-01-11T11:30:24;6.40;99.90
28071;DHT22;15383;48.408;9.968;2024-01-11T11:32:49;6.40;99.90
28071;DHT22;15383;48.408;9.968;2024-01-11T11:35:15;6.30;99.90
28071;DHT22;15383;48.408;9.968;2024-01-11T11:37:40;6.30;99.90
28071;DHT22;15383;48.408;9.968;2024-01-11T11:40:08;6.40;99.90
28071;DHT22;15383;48.408;9.968;2024-01-11T11:42:34;6.30;99.90
28071;DHT22;15383;48.408;9.968;2024-01-11T11:45:00;6.40;99.90
28071;DHT22;15383;48.408;9.968;2024-01-11T11:47:34;6.40;99.90
28071;DHT22;15383;48.408;9.968;2024-01-11T11:50:07;6.40;99.90
28071;DHT22;15383;48.408;9.968;2024-01-11T11:52:34;6.40;99.90
28071;DHT22;15383;48.408;9.968;2024-01-11T11:55:01;6.40;99.90
28071;DHT22;15383;48.408;9.968;2024-01-11T11:57:27;6.40;99.90
28071;DHT22;15383;48.408;9.968;2024-01-11T11:59:58;6.50;99.90
28071;DHT22;15383;48.408;9.968;2024-01-11T12:02:25;6.50;99.90
28071;DHT22;15383;48.408;9.968;2024-01-11T12:04:52;6.50;99.90
28071;DHT22;15383;48.408;9.968;2024-01-11T12:07:19;6.50;99.90
28071;DHT22;15383;48.408;9.968;2024-01-11T12:09:46;6.50;99.90
28071;DHT22;15383;48.408;9.968;2024-01-11T12:12:12;6.60;99.90
28071;DHT22;15383;48.408;9.968;2024-01-11T12:14:38;6.60;99.90
28071;DHT22;15383;48.408;9.968;2024-01-11T12:17:06;6.60;99.90
28071;DHT22;15383;48.408;9.968;2024-01-11T12:19:31;6.60;99.90
28071;DHT22;15383;48.408;9.968;2024-01-11T12:21:58;6.50;99.90
28071;DHT22;15383;48.408;9.968;2024-01-11T12:24:23;6.50;99.90
28071;DHT22;15383;48.408;9.968;2024-01-11T12:26:49;6.50;99.90
28071;DHT22;15383;48.408;9.968;2024-01-11T12:29:19;6.50;99.90
28071;DHT22;15383;48.408;9.968;2024-01-11T12:31:45;6.50;99.90
28071;DHT22;15383;48.408;9.968;2024-01-11T12:34:14;6.50;99.90
28071;DHT22;15383;48.408;9.968;2024-01-11T12:36:41;6.50;99.90
28071;DHT22;15383;48.408;9.968;2024-01-11T12:39:06;6.50;99.90
28071;DHT22;15383;48.408;9.968;2024-01-11T12:41:34;6.40;99.90
28071;DHT22;15383;48.408;9.968;2024-01-11T12:43:59;6.50;99.90
28071;DHT22;15383;48.408;9.968;2024-01-11T12:46:25;6.40;99.90
28071;DHT22;15383;48.408;9.968;2024-01-11T12:48:51;6.40;99.90
28071;DHT22;15383;48.408;9.968;2024-01-11T12:51:17;6.40;99.90
28071;DHT22;15383;48.408;9.968;2024-01-11T12:53:51;6.40;99.90
28071;DHT22;15383;48.408;9.968;2024-01-11T12:56:18;6.40;99.90
28071;DHT22;15383;48.408;9.968;2024-01-11T12:58:44;6.40;99.90
28071;DHT22;15383;48.408;9.968;2024-01-11T13:01:11;6.40;99.90
28071;DHT22;15383;48.408;9.968;2024-01-11T13:03:39;6.40;99.90
28071;DHT22;15383;48.408;9.968;2024-01-11T13:06:05;6.40;99.90
28071;DHT22;15383;48.408;9.968;2024-01-11T13:08:31;6.40;99.90
28071;DHT22;15383;48.408;9.968;2024-01-11T13:10:57;6.40;99.90
28071;DHT22;15383;48.408;9.968;2024-01-11T13:13:23;6.40;99.90
28071;DHT22;15383;48.408;9.968;2024-01-11T13:15:48;6.40;99.90
28071;DHT22;15383;48.408;9.968;2024-01-11T13:18:14;6.40;99.90
28071;DHT22;15383;48.408;9.968;2024-01-11T13:20:40;6.40;99.90
28071;DHT22;15383;48.408;9.968;2024-01-11T13:23:16;6.30;99.90
28071;DHT22;15383;48.408;9.968;2024-01-11T13:25:45;6.30;99.90
28071;DHT22;15383;48.408;9.968;2024-01-11T13:28:12;6.40;99.90
28071;DHT22;15383;48.408;9.968;2024-01-11T13:30:42;6.30;99.90
28071;DHT22;15383;48.408;9.968;2024-01-11T13:33:08;6.30;99.90
28071;DHT22;15383;48.408;9.968;2024-01-11T13:35:38;6.30;99.90
28071;DHT22;15383;48.408;9.968;2024-01-11T13:38:04;6.30;99.90
28071;DHT22;15383;48.408;9.968;2024-01-11T13:40:31;6.30;99.90
28071;DHT22;15383;48.408;9.968;2024-01-11T13:42:57;6.30;99.90
28071;DHT22;15383;48.408;9.968;2024-01-11T13:45:23;6.30;99.90
28071;DHT22;15383;48.408;9.968;2024-01-11T13:47:50;6.30;99.90
28071;DHT22;15383;48.408;9.968;2024-01-11T13:50:15;6.30;99.90
28071;DHT22;15383;48.408;9.968;2024-01-11T13:52:43;6.30;99.90
28071;DHT22;15383;48.408;9.968;2024-01-11T13:55:09;6.30;99.90
28071;DHT22;15383;48.408;9.968;2024-01-11T13:57:37;6.30;99.90
28071;DHT22;15383;48.408;9.968;2024-01-11T14:00:04;6.30;99.90
28071;DHT22;15383;48.408;9.968;2024-01-11T14:02:30;6.30;99.90
28071;DHT22;15383;48.408;9.968;2024-01-11T14:04:56;6.30;99.90
28071;DHT22;15383;48.408;9.968;2024-01-11T14:07:21;6.30;99.90
28071;DHT22;15383;48.408;9.968;2024-01-11T14:09:47;6.30;99.90
28071;DHT22;15383;48.408;9.968;2024-01-11T14:12:12;6.30;99.90
28071;DHT22;15383;48.408;9.968;2024-01-11T14:14:41;6.30;99.90
28071;DHT22;15383;48.408;9.968;2024-01-11T14:17:07;6.30;99.90
28071;DHT22;15383;48.408;9.968;2024-01-11T14:19:33;6.30;99.90
28071;DHT22;15383;48.408;9.968;2024-01-11T14:21:59;6.30;99.90
28071;DHT22;15383;48.408;9.968;2024-01-11T14:24:24;6.30;99.90
28071;DHT22;15383;48.408;9.968;2024-01-11T14:26:51;6.30;99.90
28071;DHT22;15383;48.408;9.968;2024-01-11T14:29:17;6.30;99.90
28071;DHT22;15383;48.408;9.968;2024-01-11T14:31:42;6.30;99.90
28071;DHT22;15383;48.408;9.968;2024-01-11T14:34:08;6.30;99.90
28071;DHT22;15383;48.408;9.968;2024-01-11T14:36:34;6.30;99.90
28071;DHT22;15383;48.408;9.968;2024-01-11T14:38:59;6.30;99.90
28071;DHT22;15383;48.408;9.968;2024-01-11T14:41:25;6.20;99.90
28071;DHT22;15383;48.408;9.968;2024-01-11T14:43:50;6.20;99.90
28071;DHT22;15383;48.408;9.968;2024-01-11T14:46:16;6.20;99.90
28071;DHT22;15383;48.408;9.968;2024-01-11T14:48:42;6.20;99.90
28071;DHT22;15383;48.408;9.968;2024-01-11T14:51:08;6.20;99.90
28071;DHT22;15383;48.408;9.968;2024-01-11T14:53:33;6.20;99.90
28071;DHT22;15383;48.408;9.968;2024-01-11T14:55:59;6.20;99.90
28071;DHT22;15383;48.408;9.968;2024-01-11T14:58:24;6.20;99.90
28071;DHT22;15383;48.408;9.968;2024-01-11T15:00:50;6.20;99.90
28071;DHT22;15383;48.408;9.968;2024-01-11T15:03:17;6.20;99.90
28071;DHT22;15383;48.408;9.968;2024-01-11T15:05:43;6.20;99.90
28071;DHT22;15383;48.408;9.968;2024-01-11T15:08:09;6.10;99.90
28071;DHT22;15383;48.408;9.968;2024-01-11T15:10:35;6.20;99.90
28071;DHT22;15383;48.408;9.968;2024-01-11T15:13:00;6.20;99.90
28071;DHT22;15383;48.408;9.968;2024-01-11T15:15:26;6.20;99.90
28071;DHT22;15383;48.408;9.968;2024-01-11T15:17:51;6.20;99.90
28071;DHT22;15383;48.408;9.968;2024-01-11T15:20:18;6.10;99.90
28071;DHT22;15383;48.408;9.968;2024-01-11T15:22:43;6.10;99.90
28071;DHT22;15383;48.408;9.968;2024-01-11T15:25:09;6.10;99.90
28071;DHT22;15383;48.408;9.968;2024-01-11T15:27:34;6.10;99.90
28071;DHT22;15383;48.408;9.968;2024-01-11T15:30:00;6.10;99.90
28071;DHT22;15383;48.408;9.968;2024-01-11T15:32:26;6.10;99.90
28071;DHT22;15383;48.408;9.968;2024-01-11T15:34:52;6.10;99.90
28071;DHT22;15383;48.408;9.968;2024-01-11T15:37:18;6.10;99.90
28071;DHT22;15383;48.408;9.968;2024-01-11T15:39:45;6.10;99.90
28071;DHT22;15383;48.408;9.968;2024-01-11T15:42:12;6.10;99.90